createdAt,value
2022-11-20T00:27:21.240Z,-3.9
2022-11-20T01:27:25.320Z,-4.2
2022-11-20T01:37:25.890Z,-4.1
2022-11-20T01:47:26.177Z,-4.2
2022-11-20T01:57:27.076Z,-4.4
2022-11-20T02:17:28.334Z,-4.4
2022-11-20T02:57:31.772Z,-4.5
2022-11-20T03:17:33.798Z,-4.6
2022-11-20T03:27:34.166Z,-4.7
2022-11-20T03:37:34.488Z,-4.7
2022-11-20T03:47:35.332Z,-4.7
2022-11-20T03:57:36.331Z,-4.6
2022-11-20T04:07:37.234Z,-4.5
2022-11-20T04:17:37.338Z,-4.6
2022-11-20T04:27:37.888Z,-4.7
2022-11-20T04:37:38.627Z,-4.9
2022-11-20T04:47:39.241Z,-4.8
2022-11-20T04:57:39.833Z,-4.8
2022-11-20T05:17:41.387Z,-4.8
2022-11-20T05:27:42.360Z,-4.8
2022-11-20T05:37:43.223Z,-5
2022-11-20T05:47:44.115Z,-5.1
2022-11-20T05:57:44.789Z,-5.2
2022-11-20T06:07:45.210Z,-5.2
2022-11-20T06:17:45.564Z,-5.2
2022-11-20T06:27:45.777Z,-5.2
2022-11-20T06:37:46.839Z,-5.2
2022-11-20T06:47:47.482Z,-5.1
2022-11-20T06:57:50.791Z,-5.1
2022-11-20T07:17:49.201Z,-4.7
2022-11-20T07:27:49.850Z,-4.6
2022-11-20T07:57:51.065Z,-4.5
2022-11-20T10:43:54.209Z,0.6
2022-11-20T10:53:39.352Z,1
2022-11-20T11:03:39.798Z,1.2
2022-11-20T11:23:40.849Z,1.8
2022-11-20T11:33:41.218Z,2.1
2022-11-20T11:53:42.519Z,2.4
2022-11-20T12:03:42.800Z,2.6
2022-11-20T12:13:43.435Z,2.8
2022-11-20T12:23:44.098Z,3
2022-11-20T12:33:45.021Z,3.2
2022-11-20T12:43:45.595Z,3.2
2022-11-20T13:03:46.401Z,3.1
2022-11-20T13:13:46.841Z,3
2022-11-20T13:23:47.545Z,2.9
2022-11-20T13:33:48.597Z,2.9
2022-11-20T13:43:49.342Z,2.9
2022-11-20T13:53:50.228Z,3
2022-11-20T14:04:06.340Z,3
2022-11-20T14:13:51.353Z,3
2022-11-20T14:23:52.248Z,2.9
2022-11-20T14:43:53.909Z,2.6
2022-11-20T14:53:54.846Z,2.6
2022-11-20T15:03:55.479Z,2.6
2022-11-20T15:13:56.518Z,2.6
2022-11-20T15:23:57.496Z,2.5
2022-11-20T15:53:59.466Z,2.3
2022-11-20T16:04:00.319Z,2.1
2022-11-20T16:14:01.339Z,2.1
2022-11-20T16:24:01.515Z,2
2022-11-20T16:34:03.168Z,2
2022-11-20T16:44:02.755Z,1.9
2022-11-20T16:54:03.571Z,1.9
2022-11-20T17:04:03.966Z,1.9
2022-11-20T17:14:04.810Z,1.8
2022-11-20T17:24:05.170Z,1.8
2022-11-20T17:34:05.328Z,1.8
2022-11-20T17:54:06.500Z,1.8
2022-11-20T18:04:06.700Z,1.9
2022-11-20T18:14:07.106Z,1.9
2022-11-20T18:24:07.809Z,1.9
2022-11-20T18:34:08.045Z,2
2022-11-20T18:44:08.451Z,2
2022-11-20T18:54:09.518Z,2.1
2022-11-20T19:04:10.474Z,2.2
2022-11-20T19:14:11.033Z,2.3
2022-11-20T19:24:11.689Z,2.5
2022-11-20T19:34:12.478Z,2.6
2022-11-20T19:44:13.304Z,2.7
2022-11-20T19:54:13.894Z,2.6
2022-11-20T20:04:13.980Z,2.6
2022-11-20T20:14:14.681Z,2.6
2022-11-20T20:24:15.066Z,2.5
2022-11-20T20:34:16.087Z,2.4
2022-11-20T20:44:16.844Z,2.3
2022-11-20T20:54:17.697Z,2.3
2022-11-20T21:04:18.395Z,2.1
2022-11-20T21:14:19.088Z,2.1
2022-11-20T21:24:19.545Z,2.1
2022-11-20T21:34:20.816Z,2
2022-11-20T21:44:30.833Z,1.9
2022-11-20T21:54:22.310Z,2
2022-11-20T22:04:22.790Z,2
2022-11-20T22:14:24.390Z,1.9
2022-11-20T22:24:24.133Z,1.9
2022-11-20T22:34:24.340Z,1.9
2022-11-20T22:44:25.107Z,1.8
2022-11-20T22:54:25.488Z,1.8
2022-11-20T23:04:26.545Z,1.7
2022-11-20T23:14:27.898Z,1.7
2022-11-20T23:24:28.096Z,1.7
2022-11-20T23:34:28.739Z,1.6
2022-11-20T23:44:28.976Z,1.6
2022-11-20T23:54:29.231Z,1.6
